sensor_id;sensor_type;location;lat;lon;timestamp;P1;durP1;ratioP1;P2;durP2;ratioP2
82412;SDS011;72056;51.980;15.436;2023-11-22T00:01:28;13.45;;;4.65;;
82412;SDS011;72056;51.980;15.436;2023-11-22T00:03:55;12.07;;;5.13;;
82412;SDS011;72056;51.980;15.436;2023-11-22T00:06:23;12.32;;;5.13;;
82412;SDS011;72056;51.980;15.436;2023-11-22T00:08:53;14.25;;;4.88;;
82412;SDS011;72056;51.980;15.436;2023-11-22T00:11:20;12.50;;;5.25;;
82412;SDS011;72056;51.980;15.436;2023-11-22T00:13:55;14.48;;;5.43;;
82412;SDS011;72056;51.980;15.436;2023-11-22T00:16:22;12.15;;;4.80;;
82412;SDS011;72056;51.980;15.436;2023-11-22T00:18:50;13.77;;;5.85;;
82412;SDS011;72056;51.980;15.436;2023-11-22T00:21:17;14.45;;;5.68;;
82412;SDS011;72056;51.980;15.436;2023-11-22T00:23:43;12.40;;;5.20;;
82412;SDS011;72056;51.980;15.436;2023-11-22T00:26:14;13.30;;;5.43;;
82412;SDS011;72056;51.980;15.436;2023-11-22T00:28:41;14.68;;;5.60;;
82412;SDS011;72056;51.980;15.436;2023-11-22T00:31:08;12.98;;;5.88;;
82412;SDS011;72056;51.980;15.436;2023-11-22T00:33:34;17.55;;;5.63;;
82412;SDS011;72056;51.980;15.436;2023-11-22T00:36:02;11.60;;;5.00;;
82412;SDS011;72056;51.980;15.436;2023-11-22T00:38:30;12.32;;;5.43;;
82412;SDS011;72056;51.980;15.436;2023-11-22T00:40:57;12.85;;;5.18;;
82412;SDS011;72056;51.980;15.436;2023-11-22T00:43:25;16.75;;;5.43;;
82412;SDS011;72056;51.980;15.436;2023-11-22T00:45:52;12.00;;;5.10;;
82412;SDS011;72056;51.980;15.436;2023-11-22T00:48:19;13.30;;;5.00;;
82412;SDS011;72056;51.980;15.436;2023-11-22T00:50:46;13.68;;;5.18;;
82412;SDS011;72056;51.980;15.436;2023-11-22T00:53:14;14.68;;;5.68;;
82412;SDS011;72056;51.980;15.436;2023-11-22T00:55:43;12.88;;;5.28;;
82412;SDS011;72056;51.980;15.436;2023-11-22T00:58:09;16.63;;;5.75;;
82412;SDS011;72056;51.980;15.436;2023-11-22T01:00:36;13.13;;;5.05;;
82412;SDS011;72056;51.980;15.436;2023-11-22T01:03:04;14.27;;;5.88;;
82412;SDS011;72056;51.980;15.436;2023-11-22T01:05:34;12.57;;;4.68;;
82412;SDS011;72056;51.980;15.436;2023-11-22T01:08:01;12.88;;;4.72;;
82412;SDS011;72056;51.980;15.436;2023-11-22T01:10:29;12.13;;;5.15;;
82412;SDS011;72056;51.980;15.436;2023-11-22T01:12:55;12.80;;;5.10;;
82412;SDS011;72056;51.980;15.436;2023-11-22T01:15:22;12.65;;;4.32;;
82412;SDS011;72056;51.980;15.436;2023-11-22T01:17:48;12.45;;;5.03;;
82412;SDS011;72056;51.980;15.436;2023-11-22T01:20:15;15.07;;;5.53;;
82412;SDS011;72056;51.980;15.436;2023-11-22T01:22:42;13.15;;;5.13;;
82412;SDS011;72056;51.980;15.436;2023-11-22T01:25:10;15.52;;;6.03;;
82412;SDS011;72056;51.980;15.436;2023-11-22T01:27:37;12.10;;;4.80;;
82412;SDS011;72056;51.980;15.436;2023-11-22T01:30:05;14.10;;;6.10;;
82412;SDS011;72056;51.980;15.436;2023-11-22T01:32:38;11.90;;;5.05;;
82412;SDS011;72056;51.980;15.436;2023-11-22T01:35:06;12.07;;;5.25;;
82412;SDS011;72056;51.980;15.436;2023-11-22T01:37:33;12.82;;;4.68;;
82412;SDS011;72056;51.980;15.436;2023-11-22T01:40:04;13.70;;;5.28;;
82412;SDS011;72056;51.980;15.436;2023-11-22T01:42:34;14.82;;;5.45;;
82412;SDS011;72056;51.980;15.436;2023-11-22T01:45:04;15.25;;;5.07;;
82412;SDS011;72056;51.980;15.436;2023-11-22T01:50:32;15.68;;;5.15;;
82412;SDS011;72056;51.980;15.436;2023-11-22T01:53:02;14.93;;;5.25;;
82412;SDS011;72056;51.980;15.436;2023-11-22T01:55:29;11.85;;;4.18;;
82412;SDS011;72056;51.980;15.436;2023-11-22T01:57:56;14.77;;;5.72;;
82412;SDS011;72056;51.980;15.436;2023-11-22T02:00:24;12.82;;;4.93;;
82412;SDS011;72056;51.980;15.436;2023-11-22T02:02:53;12.00;;;4.55;;
82412;SDS011;72056;51.980;15.436;2023-11-22T02:05:22;14.88;;;5.20;;
82412;SDS011;72056;51.980;15.436;2023-11-22T02:07:48;13.73;;;5.47;;
82412;SDS011;72056;51.980;15.436;2023-11-22T02:10:15;13.65;;;5.22;;
82412;SDS011;72056;51.980;15.436;2023-11-22T02:12:42;13.30;;;5.15;;
82412;SDS011;72056;51.980;15.436;2023-11-22T02:15:09;12.50;;;4.90;;
82412;SDS011;72056;51.980;15.436;2023-11-22T02:17:38;14.75;;;5.38;;
82412;SDS011;72056;51.980;15.436;2023-11-22T02:20:10;13.57;;;4.97;;
82412;SDS011;72056;51.980;15.436;2023-11-22T02:22:46;12.85;;;5.22;;
82412;SDS011;72056;51.980;15.436;2023-11-22T02:25:14;13.20;;;4.95;;
82412;SDS011;72056;51.980;15.436;2023-11-22T02:27:41;13.70;;;5.65;;
82412;SDS011;72056;51.980;15.436;2023-11-22T02:30:08;15.20;;;5.20;;
82412;SDS011;72056;51.980;15.436;2023-11-22T02:32:35;14.07;;;5.38;;
82412;SDS011;72056;51.980;15.436;2023-11-22T02:35:07;13.48;;;5.13;;
82412;SDS011;72056;51.980;15.436;2023-11-22T02:37:39;12.75;;;5.35;;
82412;SDS011;72056;51.980;15.436;2023-11-22T02:42:37;11.75;;;4.30;;
82412;SDS011;72056;51.980;15.436;2023-11-22T02:45:05;12.02;;;4.90;;
82412;SDS011;72056;51.980;15.436;2023-11-22T02:47:34;13.40;;;4.85;;
82412;SDS011;72056;51.980;15.436;2023-11-22T02:50:02;13.25;;;4.18;;
82412;SDS011;72056;51.980;15.436;2023-11-22T02:52:28;14.60;;;5.20;;
82412;SDS011;72056;51.980;15.436;2023-11-22T02:54:55;12.60;;;4.50;;
82412;SDS011;72056;51.980;15.436;2023-11-22T02:57:22;12.38;;;4.72;;
82412;SDS011;72056;51.980;15.436;2023-11-22T02:59:50;11.85;;;4.70;;
82412;SDS011;72056;51.980;15.436;2023-11-22T03:02:21;10.73;;;3.97;;
82412;SDS011;72056;51.980;15.436;2023-11-22T03:04:48;11.63;;;4.50;;
82412;SDS011;72056;51.980;15.436;2023-11-22T03:07:15;12.48;;;4.38;;
82412;SDS011;72056;51.980;15.436;2023-11-22T03:09:43;12.27;;;4.75;;
82412;SDS011;72056;51.980;15.436;2023-11-22T03:12:12;10.82;;;4.18;;
82412;SDS011;72056;51.980;15.436;2023-11-22T03:14:44;14.65;;;4.50;;
82412;SDS011;72056;51.980;15.436;2023-11-22T03:17:11;12.25;;;4.57;;
82412;SDS011;72056;51.980;15.436;2023-11-22T03:19:39;13.18;;;4.30;;
82412;SDS011;72056;51.980;15.436;2023-11-22T03:22:07;11.07;;;3.97;;
82412;SDS011;72056;51.980;15.436;2023-11-22T03:24:33;11.70;;;4.15;;
82412;SDS011;72056;51.980;15.436;2023-11-22T03:27:06;10.23;;;3.85;;
82412;SDS011;72056;51.980;15.436;2023-11-22T03:29:34;13.55;;;4.82;;
82412;SDS011;72056;51.980;15.436;2023-11-22T03:32:05;11.98;;;4.38;;
82412;SDS011;72056;51.980;15.436;2023-11-22T03:34:33;14.00;;;5.32;;
82412;SDS011;72056;51.980;15.436;2023-11-22T03:37:04;14.43;;;5.43;;
82412;SDS011;72056;51.980;15.436;2023-11-22T03:39:31;11.65;;;4.18;;
82412;SDS011;72056;51.980;15.436;2023-11-22T03:41:58;12.18;;;4.50;;
82412;SDS011;72056;51.980;15.436;2023-11-22T03:44:30;13.65;;;4.70;;
82412;SDS011;72056;51.980;15.436;2023-11-22T03:46:58;12.77;;;4.22;;
82412;SDS011;72056;51.980;15.436;2023-11-22T03:49:25;10.05;;;3.97;;
82412;SDS011;72056;51.980;15.436;2023-11-22T03:51:57;10.73;;;4.13;;
82412;SDS011;72056;51.980;15.436;2023-11-22T03:54:23;13.45;;;4.40;;
82412;SDS011;72056;51.980;15.436;2023-11-22T03:56:50;10.52;;;3.90;;
82412;SDS011;72056;51.980;15.436;2023-11-22T03:59:18;11.13;;;3.95;;
82412;SDS011;72056;51.980;15.436;2023-11-22T04:01:45;12.88;;;4.18;;
82412;SDS011;72056;51.980;15.436;2023-11-22T04:04:12;10.38;;;3.70;;
82412;SDS011;72056;51.980;15.436;2023-11-22T04:06:43;9.95;;;3.72;;
82412;SDS011;72056;51.980;15.436;2023-11-22T04:09:10;10.50;;;3.90;;
82412;SDS011;72056;51.980;15.436;2023-11-22T04:11:42;12.65;;;4.00;;
82412;SDS011;72056;51.980;15.436;2023-11-22T04:14:13;12.85;;;4.47;;
82412;SDS011;72056;51.980;15.436;2023-11-22T04:16:41;12.30;;;4.20;;
82412;SDS011;72056;51.980;15.436;2023-11-22T04:19:08;9.93;;;3.92;;
82412;SDS011;72056;51.980;15.436;2023-11-22T04:21:35;11.10;;;4.32;;
82412;SDS011;72056;51.980;15.436;2023-11-22T04:24:02;12.07;;;4.28;;
82412;SDS011;72056;51.980;15.436;2023-11-22T04:26:31;9.95;;;3.97;;
82412;SDS011;72056;51.980;15.436;2023-11-22T04:28:59;14.32;;;4.10;;
82412;SDS011;72056;51.980;15.436;2023-11-22T04:31:30;11.13;;;4.45;;
82412;SDS011;72056;51.980;15.436;2023-11-22T04:33:56;11.90;;;4.05;;
82412;SDS011;72056;51.980;15.436;2023-11-22T04:36:26;12.73;;;3.80;;
82412;SDS011;72056;51.980;15.436;2023-11-22T04:38:52;10.27;;;3.85;;
82412;SDS011;72056;51.980;15.436;2023-11-22T04:41:18;11.23;;;3.92;;
82412;SDS011;72056;51.980;15.436;2023-11-22T04:43:46;13.35;;;4.60;;
82412;SDS011;72056;51.980;15.436;2023-11-22T04:46:13;10.65;;;4.45;;
82412;SDS011;72056;51.980;15.436;2023-11-22T04:48:40;10.95;;;3.58;;
82412;SDS011;72056;51.980;15.436;2023-11-22T04:51:11;12.73;;;4.25;;
82412;SDS011;72056;51.980;15.436;2023-11-22T04:53:37;12.65;;;4.07;;
82412;SDS011;72056;51.980;15.436;2023-11-22T04:56:03;13.18;;;5.00;;
82412;SDS011;72056;51.980;15.436;2023-11-22T04:58:32;11.38;;;4.10;;
82412;SDS011;72056;51.980;15.436;2023-11-22T05:00:59;10.82;;;4.05;;
82412;SDS011;72056;51.980;15.436;2023-11-22T05:03:28;10.05;;;3.35;;
82412;SDS011;72056;51.980;15.436;2023-11-22T05:05:54;11.80;;;3.75;;
82412;SDS011;72056;51.980;15.436;2023-11-22T05:08:22;10.52;;;3.83;;
82412;SDS011;72056;51.980;15.436;2023-11-22T05:10:51;11.18;;;3.42;;
82412;SDS011;72056;51.980;15.436;2023-11-22T05:13:20;11.45;;;3.75;;
82412;SDS011;72056;51.980;15.436;2023-11-22T05:15:51;10.88;;;3.38;;
82412;SDS011;72056;51.980;15.436;2023-11-22T05:18:19;12.05;;;4.03;;
82412;SDS011;72056;51.980;15.436;2023-11-22T05:20:46;13.68;;;4.60;;
82412;SDS011;72056;51.980;15.436;2023-11-22T05:23:17;11.98;;;3.78;;
82412;SDS011;72056;51.980;15.436;2023-11-22T05:25:44;10.15;;;3.20;;
82412;SDS011;72056;51.980;15.436;2023-11-22T05:28:11;10.63;;;3.70;;
82412;SDS011;72056;51.980;15.436;2023-11-22T05:30:38;10.40;;;3.63;;
82412;SDS011;72056;51.980;15.436;2023-11-22T05:33:09;11.52;;;3.80;;
82412;SDS011;72056;51.980;15.436;2023-11-22T05:35:36;11.30;;;4.22;;
82412;SDS011;72056;51.980;15.436;2023-11-22T05:38:04;11.63;;;3.92;;
82412;SDS011;72056;51.980;15.436;2023-11-22T05:40:36;9.75;;;4.05;;
82412;SDS011;72056;51.980;15.436;2023-11-22T05:43:05;14.70;;;4.55;;
82412;SDS011;72056;51.980;15.436;2023-11-22T05:45:34;10.60;;;3.90;;
82412;SDS011;72056;51.980;15.436;2023-11-22T05:48:05;9.25;;;3.60;;
82412;SDS011;72056;51.980;15.436;2023-11-22T05:50:36;12.45;;;4.78;;
82412;SDS011;72056;51.980;15.436;2023-11-22T05:53:03;11.60;;;3.78;;
82412;SDS011;72056;51.980;15.436;2023-11-22T05:55:31;12.07;;;4.45;;
82412;SDS011;72056;51.980;15.436;2023-11-22T05:57:59;12.82;;;4.28;;
82412;SDS011;72056;51.980;15.436;2023-11-22T06:00:26;10.70;;;3.75;;
82412;SDS011;72056;51.980;15.436;2023-11-22T06:02:54;10.85;;;3.97;;
82412;SDS011;72056;51.980;15.436;2023-11-22T06:05:21;11.35;;;3.75;;
82412;SDS011;72056;51.980;15.436;2023-11-22T06:07:52;10.38;;;3.83;;
82412;SDS011;72056;51.980;15.436;2023-11-22T06:10:19;10.30;;;3.78;;
82412;SDS011;72056;51.980;15.436;2023-11-22T06:12:46;11.65;;;3.75;;
82412;SDS011;72056;51.980;15.436;2023-11-22T06:15:14;10.27;;;4.03;;
82412;SDS011;72056;51.980;15.436;2023-11-22T06:17:42;10.35;;;4.18;;
82412;SDS011;72056;51.980;15.436;2023-11-22T06:20:09;11.45;;;3.70;;
82412;SDS011;72056;51.980;15.436;2023-11-22T06:22:39;12.13;;;4.55;;
82412;SDS011;72056;51.980;15.436;2023-11-22T06:25:08;12.73;;;3.92;;
82412;SDS011;72056;51.980;15.436;2023-11-22T06:27:37;10.80;;;4.28;;
82412;SDS011;72056;51.980;15.436;2023-11-22T06:30:06;12.98;;;4.15;;
82412;SDS011;72056;51.980;15.436;2023-11-22T06:32:33;12.43;;;4.38;;
82412;SDS011;72056;51.980;15.436;2023-11-22T06:35:04;11.43;;;4.13;;
82412;SDS011;72056;51.980;15.436;2023-11-22T06:37:35;10.70;;;4.40;;
82412;SDS011;72056;51.980;15.436;2023-11-22T06:40:03;12.45;;;3.92;;
82412;SDS011;72056;51.980;15.436;2023-11-22T06:42:31;11.45;;;3.92;;
82412;SDS011;72056;51.980;15.436;2023-11-22T06:45:00;10.95;;;4.03;;
82412;SDS011;72056;51.980;15.436;2023-11-22T06:47:29;14.18;;;4.22;;
82412;SDS011;72056;51.980;15.436;2023-11-22T06:50:00;14.20;;;4.47;;
82412;SDS011;72056;51.980;15.436;2023-11-22T06:52:27;10.13;;;3.63;;
82412;SDS011;72056;51.980;15.436;2023-11-22T06:54:54;13.68;;;4.43;;
82412;SDS011;72056;51.980;15.436;2023-11-22T06:57:25;11.60;;;3.90;;
82412;SDS011;72056;51.980;15.436;2023-11-22T06:59:57;11.30;;;4.38;;
82412;SDS011;72056;51.980;15.436;2023-11-22T07:02:27;10.18;;;3.85;;
82412;SDS011;72056;51.980;15.436;2023-11-22T07:04:54;10.68;;;4.10;;
82412;SDS011;72056;51.980;15.436;2023-11-22T07:07:21;12.07;;;4.00;;
82412;SDS011;72056;51.980;15.436;2023-11-22T07:09:48;13.43;;;4.97;;
82412;SDS011;72056;51.980;15.436;2023-11-22T07:12:16;13.60;;;5.32;;
82412;SDS011;72056;51.980;15.436;2023-11-22T07:14:44;12.25;;;4.07;;
82412;SDS011;72056;51.980;15.436;2023-11-22T07:17:11;11.43;;;4.53;;
82412;SDS011;72056;51.980;15.436;2023-11-22T07:19:39;13.63;;;5.00;;
82412;SDS011;72056;51.980;15.436;2023-11-22T07:22:13;12.88;;;4.72;;
82412;SDS011;72056;51.980;15.436;2023-11-22T07:27:10;10.40;;;3.88;;
82412;SDS011;72056;51.980;15.436;2023-11-22T07:29:42;13.18;;;4.45;;
82412;SDS011;72056;51.980;15.436;2023-11-22T07:32:12;12.10;;;4.50;;
82412;SDS011;72056;51.980;15.436;2023-11-22T07:34:40;9.77;;;3.92;;
82412;SDS011;72056;51.980;15.436;2023-11-22T07:37:08;11.23;;;4.43;;
82412;SDS011;72056;51.980;15.436;2023-11-22T07:39:39;12.68;;;4.93;;
82412;SDS011;72056;51.980;15.436;2023-11-22T07:42:09;13.10;;;5.45;;
82412;SDS011;72056;51.980;15.436;2023-11-22T07:44:40;15.55;;;5.18;;
82412;SDS011;72056;51.980;15.436;2023-11-22T07:47:08;13.15;;;4.78;;
82412;SDS011;72056;51.980;15.436;2023-11-22T07:49:39;14.20;;;4.80;;
82412;SDS011;72056;51.980;15.436;2023-11-22T07:52:07;14.20;;;4.95;;
82412;SDS011;72056;51.980;15.436;2023-11-22T07:54:39;12.68;;;5.00;;
82412;SDS011;72056;51.980;15.436;2023-11-22T07:57:07;16.73;;;5.90;;
82412;SDS011;72056;51.980;15.436;2023-11-22T07:59:34;12.98;;;5.35;;
82412;SDS011;72056;51.980;15.436;2023-11-22T08:02:02;14.82;;;5.00;;
82412;SDS011;72056;51.980;15.436;2023-11-22T08:04:33;17.08;;;6.70;;
82412;SDS011;72056;51.980;15.436;2023-11-22T08:07:00;15.75;;;6.07;;
82412;SDS011;72056;51.980;15.436;2023-11-22T08:09:27;16.38;;;6.35;;
82412;SDS011;72056;51.980;15.436;2023-11-22T08:11:58;15.85;;;6.30;;
82412;SDS011;72056;51.980;15.436;2023-11-22T08:14:29;15.80;;;6.78;;
82412;SDS011;72056;51.980;15.436;2023-11-22T08:17:01;15.88;;;6.43;;
82412;SDS011;72056;51.980;15.436;2023-11-22T08:19:29;15.10;;;5.97;;
82412;SDS011;72056;51.980;15.436;2023-11-22T08:21:55;14.60;;;5.93;;
82412;SDS011;72056;51.980;15.436;2023-11-22T08:24:26;17.35;;;5.82;;
82412;SDS011;72056;51.980;15.436;2023-11-22T08:26:53;18.35;;;7.20;;
82412;SDS011;72056;51.980;15.436;2023-11-22T08:29:20;14.63;;;6.32;;
82412;SDS011;72056;51.980;15.436;2023-11-22T08:31:46;15.00;;;6.03;;
82412;SDS011;72056;51.980;15.436;2023-11-22T08:34:16;16.40;;;6.72;;
82412;SDS011;72056;51.980;15.436;2023-11-22T08:36:47;15.55;;;6.93;;
82412;SDS011;72056;51.980;15.436;2023-11-22T08:39:15;14.98;;;5.80;;
82412;SDS011;72056;51.980;15.436;2023-11-22T08:41:42;14.48;;;5.53;;
82412;SDS011;72056;51.980;15.436;2023-11-22T08:44:08;18.58;;;7.25;;
82412;SDS011;72056;51.980;15.436;2023-11-22T08:46:35;17.25;;;7.28;;
82412;SDS011;72056;51.980;15.436;2023-11-22T08:49:01;18.15;;;7.35;;
82412;SDS011;72056;51.980;15.436;2023-11-22T08:51:28;20.02;;;8.30;;
82412;SDS011;72056;51.980;15.436;2023-11-22T08:53:54;15.95;;;6.93;;
82412;SDS011;72056;51.980;15.436;2023-11-22T08:56:21;15.25;;;6.85;;
82412;SDS011;72056;51.980;15.436;2023-11-22T08:58:48;15.20;;;5.88;;
82412;SDS011;72056;51.980;15.436;2023-11-22T09:01:19;15.63;;;6.03;;
82412;SDS011;72056;51.980;15.436;2023-11-22T09:03:47;13.55;;;5.82;;
82412;SDS011;72056;51.980;15.436;2023-11-22T09:06:16;15.52;;;7.53;;
82412;SDS011;72056;51.980;15.436;2023-11-22T09:08:48;13.02;;;6.13;;
82412;SDS011;72056;51.980;15.436;2023-11-22T09:11:15;13.02;;;5.35;;
82412;SDS011;72056;51.980;15.436;2023-11-22T09:13:43;13.90;;;6.60;;
82412;SDS011;72056;51.980;15.436;2023-11-22T09:16:11;12.98;;;6.75;;
82412;SDS011;72056;51.980;15.436;2023-11-22T09:18:41;13.63;;;6.53;;
82412;SDS011;72056;51.980;15.436;2023-11-22T09:21:08;12.73;;;5.90;;
82412;SDS011;72056;51.980;15.436;2023-11-22T09:23:35;12.30;;;6.38;;
82412;SDS011;72056;51.980;15.436;2023-11-22T09:26:02;12.52;;;5.70;;
82412;SDS011;72056;51.980;15.436;2023-11-22T09:28:30;13.75;;;5.68;;
82412;SDS011;72056;51.980;15.436;2023-11-22T09:30:58;13.20;;;6.03;;
82412;SDS011;72056;51.980;15.436;2023-11-22T09:33:32;14.40;;;6.43;;
82412;SDS011;72056;51.980;15.436;2023-11-22T09:38:34;14.80;;;6.68;;
82412;SDS011;72056;51.980;15.436;2023-11-22T09:41:03;13.50;;;6.35;;
82412;SDS011;72056;51.980;15.436;2023-11-22T09:43:30;11.38;;;5.95;;
82412;SDS011;72056;51.980;15.436;2023-11-22T09:45:57;12.60;;;5.82;;
82412;SDS011;72056;51.980;15.436;2023-11-22T09:48:26;12.50;;;5.90;;
82412;SDS011;72056;51.980;15.436;2023-11-22T09:53:40;13.52;;;6.50;;
82412;SDS011;72056;51.980;15.436;2023-11-22T09:56:11;12.85;;;5.82;;
82412;SDS011;72056;51.980;15.436;2023-11-22T09:58:40;11.68;;;5.68;;
82412;SDS011;72056;51.980;15.436;2023-11-22T10:01:12;12.05;;;6.10;;
82412;SDS011;72056;51.980;15.436;2023-11-22T10:03:43;11.20;;;5.20;;
82412;SDS011;72056;51.980;15.436;2023-11-22T10:06:12;11.80;;;5.78;;
82412;SDS011;72056;51.980;15.436;2023-11-22T10:08:40;11.32;;;5.70;;
82412;SDS011;72056;51.980;15.436;2023-11-22T10:11:07;12.23;;;5.88;;
82412;SDS011;72056;51.980;15.436;2023-11-22T10:13:33;14.45;;;7.25;;
82412;SDS011;72056;51.980;15.436;2023-11-22T10:16:10;11.18;;;5.82;;
82412;SDS011;72056;51.980;15.436;2023-11-22T10:18:42;11.25;;;5.80;;
82412;SDS011;72056;51.980;15.436;2023-11-22T10:23:46;12.75;;;5.70;;
82412;SDS011;72056;51.980;15.436;2023-11-22T10:26:19;12.25;;;6.28;;
82412;SDS011;72056;51.980;15.436;2023-11-22T10:28:52;10.35;;;5.45;;
82412;SDS011;72056;51.980;15.436;2023-11-22T10:31:19;11.50;;;5.55;;
82412;SDS011;72056;51.980;15.436;2023-11-22T10:33:47;11.05;;;5.28;;
82412;SDS011;72056;51.980;15.436;2023-11-22T10:36:15;10.15;;;4.55;;
82412;SDS011;72056;51.980;15.436;2023-11-22T10:38:44;9.45;;;4.40;;
82412;SDS011;72056;51.980;15.436;2023-11-22T10:41:12;10.15;;;4.68;;
82412;SDS011;72056;51.980;15.436;2023-11-22T10:46:12;10.20;;;5.15;;
82412;SDS011;72056;51.980;15.436;2023-11-22T10:48:47;9.85;;;4.70;;
82412;SDS011;72056;51.980;15.436;2023-11-22T10:51:14;9.95;;;4.55;;
82412;SDS011;72056;51.980;15.436;2023-11-22T10:53:51;10.40;;;5.70;;
82412;SDS011;72056;51.980;15.436;2023-11-22T10:56:21;8.45;;;4.70;;
82412;SDS011;72056;51.980;15.436;2023-11-22T10:58:49;9.93;;;4.55;;
82412;SDS011;72056;51.980;15.436;2023-11-22T11:01:27;8.95;;;4.13;;
82412;SDS011;72056;51.980;15.436;2023-11-22T11:06:42;9.07;;;4.15;;
82412;SDS011;72056;51.980;15.436;2023-11-22T11:09:17;9.48;;;4.40;;
82412;SDS011;72056;51.980;15.436;2023-11-22T11:11:47;10.43;;;5.15;;
82412;SDS011;72056;51.980;15.436;2023-11-22T11:14:14;9.88;;;4.72;;
82412;SDS011;72056;51.980;15.436;2023-11-22T11:16:43;8.10;;;4.25;;
82412;SDS011;72056;51.980;15.436;2023-11-22T11:19:15;10.82;;;4.43;;
82412;SDS011;72056;51.980;15.436;2023-11-22T11:21:47;8.77;;;4.72;;
82412;SDS011;72056;51.980;15.436;2023-11-22T11:24:14;11.40;;;5.93;;
82412;SDS011;72056;51.980;15.436;2023-11-22T11:26:46;10.43;;;4.63;;
82412;SDS011;72056;51.980;15.436;2023-11-22T11:29:31;10.77;;;5.13;;
82412;SDS011;72056;51.980;15.436;2023-11-22T11:31:57;9.95;;;5.10;;
82412;SDS011;72056;51.980;15.436;2023-11-22T11:34:26;9.50;;;4.45;;
82412;SDS011;72056;51.980;15.436;2023-11-22T11:36:55;9.57;;;4.95;;
82412;SDS011;72056;51.980;15.436;2023-11-22T11:39:25;8.15;;;4.10;;
82412;SDS011;72056;51.980;15.436;2023-11-22T11:42:08;8.35;;;4.07;;
82412;SDS011;72056;51.980;15.436;2023-11-22T11:44:36;9.60;;;4.60;;
82412;SDS011;72056;51.980;15.436;2023-11-22T11:47:10;8.30;;;3.80;;
82412;SDS011;72056;51.980;15.436;2023-11-22T11:49:37;8.10;;;3.97;;
82412;SDS011;72056;51.980;15.436;2023-11-22T11:52:08;7.50;;;3.72;;
82412;SDS011;72056;51.980;15.436;2023-11-22T11:54:35;9.77;;;5.00;;
82412;SDS011;72056;51.980;15.436;2023-11-22T11:57:02;8.23;;;4.15;;
82412;SDS011;72056;51.980;15.436;2023-11-22T11:59:29;9.18;;;4.50;;
82412;SDS011;72056;51.980;15.436;2023-11-22T12:01:59;7.95;;;4.28;;
82412;SDS011;72056;51.980;15.436;2023-11-22T12:04:25;9.65;;;4.65;;
82412;SDS011;72056;51.980;15.436;2023-11-22T12:06:52;8.68;;;4.32;;
82412;SDS011;72056;51.980;15.436;2023-11-22T12:09:24;10.50;;;5.03;;
82412;SDS011;72056;51.980;15.436;2023-11-22T12:11:52;9.93;;;5.00;;
82412;SDS011;72056;51.980;15.436;2023-11-22T12:14:24;10.68;;;5.20;;
82412;SDS011;72056;51.980;15.436;2023-11-22T12:16:51;10.20;;;5.22;;
82412;SDS011;72056;51.980;15.436;2023-11-22T12:19:23;11.15;;;5.18;;
82412;SDS011;72056;51.980;15.436;2023-11-22T12:21:51;8.80;;;5.03;;
82412;SDS011;72056;51.980;15.436;2023-11-22T12:24:19;8.30;;;4.15;;
82412;SDS011;72056;51.980;15.436;2023-11-22T12:26:45;8.60;;;4.18;;
82412;SDS011;72056;51.980;15.436;2023-11-22T12:29:17;8.77;;;4.22;;
82412;SDS011;72056;51.980;15.436;2023-11-22T12:34:21;9.38;;;4.43;;
82412;SDS011;72056;51.980;15.436;2023-11-22T12:36:48;12.23;;;5.50;;
82412;SDS011;72056;51.980;15.436;2023-11-22T12:39:20;10.02;;;4.25;;
82412;SDS011;72056;51.980;15.436;2023-11-22T12:41:48;11.32;;;4.72;;
82412;SDS011;72056;51.980;15.436;2023-11-22T12:44:18;9.65;;;4.40;;
82412;SDS011;72056;51.980;15.436;2023-11-22T12:46:50;10.18;;;4.57;;
82412;SDS011;72056;51.980;15.436;2023-11-22T12:49:25;10.85;;;5.53;;
82412;SDS011;72056;51.980;15.436;2023-11-22T12:51:52;9.50;;;4.85;;
82412;SDS011;72056;51.980;15.436;2023-11-22T12:54:26;10.52;;;4.28;;
82412;SDS011;72056;51.980;15.436;2023-11-22T12:56:52;9.65;;;4.95;;
82412;SDS011;72056;51.980;15.436;2023-11-22T12:59:23;9.05;;;4.70;;
82412;SDS011;72056;51.980;15.436;2023-11-22T13:01:50;9.60;;;4.80;;
82412;SDS011;72056;51.980;15.436;2023-11-22T13:04:26;10.77;;;5.22;;
82412;SDS011;72056;51.980;15.436;2023-11-22T13:06:55;10.93;;;5.60;;
82412;SDS011;72056;51.980;15.436;2023-11-22T13:09:23;12.05;;;5.57;;
82412;SDS011;72056;51.980;15.436;2023-11-22T13:11:55;12.40;;;6.10;;
82412;SDS011;72056;51.980;15.436;2023-11-22T13:14:21;10.23;;;4.90;;
82412;SDS011;72056;51.980;15.436;2023-11-22T13:16:49;12.57;;;5.85;;
82412;SDS011;72056;51.980;15.436;2023-11-22T13:19:21;10.73;;;5.00;;
82412;SDS011;72056;51.980;15.436;2023-11-22T13:21:48;11.15;;;5.13;;
82412;SDS011;72056;51.980;15.436;2023-11-22T13:24:15;13.25;;;5.93;;
82412;SDS011;72056;51.980;15.436;2023-11-22T13:26:44;10.68;;;5.28;;
82412;SDS011;72056;51.980;15.436;2023-11-22T13:29:12;11.27;;;4.70;;
82412;SDS011;72056;51.980;15.436;2023-11-22T13:31:39;11.45;;;4.97;;
82412;SDS011;72056;51.980;15.436;2023-11-22T13:34:06;11.13;;;4.85;;
82412;SDS011;72056;51.980;15.436;2023-11-22T13:36:32;11.18;;;4.82;;
82412;SDS011;72056;51.980;15.436;2023-11-22T13:38:59;9.98;;;4.95;;
82412;SDS011;72056;51.980;15.436;2023-11-22T13:41:27;12.48;;;5.13;;
82412;SDS011;72056;51.980;15.436;2023-11-22T13:43:53;12.50;;;5.50;;
82412;SDS011;72056;51.980;15.436;2023-11-22T13:46:20;11.32;;;5.07;;
82412;SDS011;72056;51.980;15.436;2023-11-22T13:48:50;9.50;;;4.18;;
82412;SDS011;72056;51.980;15.436;2023-11-22T13:51:17;11.32;;;5.22;;
82412;SDS011;72056;51.980;15.436;2023-11-22T13:53:44;11.93;;;4.63;;
82412;SDS011;72056;51.980;15.436;2023-11-22T13:56:18;11.15;;;5.05;;
82412;SDS011;72056;51.980;15.436;2023-11-22T13:58:46;11.85;;;5.78;;
82412;SDS011;72056;51.980;15.436;2023-11-22T14:01:14;11.25;;;5.22;;
82412;SDS011;72056;51.980;15.436;2023-11-22T14:03:47;11.80;;;5.78;;
82412;SDS011;72056;51.980;15.436;2023-11-22T14:06:14;10.40;;;4.30;;
82412;SDS011;72056;51.980;15.436;2023-11-22T14:08:42;9.90;;;4.03;;
82412;SDS011;72056;51.980;15.436;2023-11-22T14:11:11;10.98;;;4.10;;
82412;SDS011;72056;51.980;15.436;2023-11-22T14:13:38;9.57;;;4.05;;
82412;SDS011;72056;51.980;15.436;2023-11-22T14:16:06;10.18;;;3.85;;
82412;SDS011;72056;51.980;15.436;2023-11-22T14:18:34;9.13;;;4.15;;
82412;SDS011;72056;51.980;15.436;2023-11-22T14:21:01;12.05;;;4.50;;
82412;SDS011;72056;51.980;15.436;2023-11-22T14:23:30;11.15;;;4.82;;
82412;SDS011;72056;51.980;15.436;2023-11-22T14:26:02;11.48;;;4.90;;
82412;SDS011;72056;51.980;15.436;2023-11-22T14:28:29;10.70;;;4.70;;
82412;SDS011;72056;51.980;15.436;2023-11-22T14:30:57;12.95;;;5.30;;
82412;SDS011;72056;51.980;15.436;2023-11-22T14:33:25;10.25;;;4.68;;
82412;SDS011;72056;51.980;15.436;2023-11-22T14:35:58;11.55;;;4.80;;
82412;SDS011;72056;51.980;15.436;2023-11-22T14:38:24;11.30;;;4.63;;
82412;SDS011;72056;51.980;15.436;2023-11-22T14:40:52;12.77;;;5.07;;
82412;SDS011;72056;51.980;15.436;2023-11-22T14:43:19;13.68;;;5.35;;
82412;SDS011;72056;51.980;15.436;2023-11-22T14:45:46;13.45;;;5.57;;
82412;SDS011;72056;51.980;15.436;2023-11-22T14:48:14;12.20;;;5.55;;
82412;SDS011;72056;51.980;15.436;2023-11-22T14:50:42;15.38;;;6.22;;
82412;SDS011;72056;51.980;15.436;2023-11-22T14:53:10;12.57;;;4.72;;
82412;SDS011;72056;51.980;15.436;2023-11-22T14:55:37;11.80;;;4.93;;